Time;durP1;ratioP1;P1;durP2;ratioP2;P2;SDS_P1;SDS_P2;PMS_P1;PMS_P2;Temp;Humidity;BMP_temperature;BMP_pressure;BME280_temperature;BME280_humidity;BME280_pressure;Samples;Min_cycle;Max_cycle;Signal;HPM_P1;HPM_P2
2023/01/23 00:00:33;;;;;;;27.83;15.10;;;4.30;99.90;;;;;;5031963;28;20030;-73
2023/01/23 00:02:59;;;;;;;28.30;15.77;;;4.30;99.90;;;;;;5015975;28;20033;-73
2023/01/23 00:05:25;;;;;;;26.17;15.52;;;4.20;99.90;;;;;;5031292;28;20444;-73
2023/01/23 00:07:51;;;;;;;30.73;15.70;;;4.00;99.90;;;;;;5032688;28;20029;-73
2023/01/23 00:10:17;;;;;;;31.02;15.20;;;4.00;99.90;;;;;;5032024;28;20025;-73
2023/01/23 00:12:44;;;;;;;28.73;16.23;;;3.90;99.90;;;;;;5031792;28;20469;-73
2023/01/23 00:15:12;;;;;;;42.70;16.40;;;3.90;99.90;;;;;;5032474;28;20029;-72
2023/01/23 00:17:40;;;;;;;34.72;17.50;;;3.90;99.90;;;;;;5031769;28;20492;-72
2023/01/23 00:20:10;;;;;;;30.90;16.35;;;4.00;99.90;;;;;;5032431;28;20021;-72
2023/01/23 00:22:36;;;;;;;30.13;17.10;;;4.10;99.90;;;;;;5032719;28;20028;-73
2023/01/23 00:25:03;;;;;;;29.42;16.40;;;4.20;99.90;;;;;;5032337;28;20033;-73
2023/01/23 00:27:29;;;;;;;31.67;17.35;;;4.10;99.90;;;;;;5032579;28;20022;-72
2023/01/23 00:29:55;;;;;;;35.60;17.60;;;4.20;99.90;;;;;;5031835;28;20120;-73
2023/01/23 00:32:21;;;;;;;28.40;14.82;;;4.10;99.90;;;;;;5035370;28;20033;-73
2023/01/23 00:34:47;;;;;;;27.92;16.13;;;4.10;99.90;;;;;;5039391;28;20410;-73
2023/01/23 00:37:12;;;;;;;30.00;16.85;;;4.30;99.90;;;;;;5052990;28;20038;-73
2023/01/23 00:39:38;;;;;;;29.98;16.25;;;4.30;99.90;;;;;;5041859;28;20037;-73
2023/01/23 00:42:04;;;;;;;30.33;16.48;;;4.30;99.90;;;;;;5036330;28;20053;-73
2023/01/23 00:44:30;;;;;;;25.42;14.73;;;4.20;99.90;;;;;;5036144;28;20029;-73
2023/01/23 00:46:57;;;;;;;30.17;15.50;;;4.30;99.90;;;;;;5036095;28;20040;-73
2023/01/23 00:49:22;;;;;;;30.48;16.05;;;4.40;99.90;;;;;;5002464;28;20553;-73
2023/01/23 00:51:49;;;;;;;31.38;15.63;;;4.50;99.90;;;;;;5034784;28;20053;-72
2023/01/23 00:54:16;;;;;;;35.38;17.33;;;4.40;99.90;;;;;;5018497;28;20040;-72
2023/01/23 00:56:42;;;;;;;33.22;17.50;;;4.20;99.90;;;;;;5035963;28;20095;-71
2023/01/23 00:59:07;;;;;;;30.27;16.73;;;4.20;99.90;;;;;;5034634;28;20025;-72
2023/01/23 01:01:33;;;;;;;33.83;17.38;;;4.00;99.90;;;;;;5035858;28;20075;-72
2023/01/23 01:03:59;;;;;;;34.78;17.55;;;4.00;99.90;;;;;;5035734;28;20044;-73
2023/01/23 01:06:26;;;;;;;35.00;18.42;;;3.90;99.90;;;;;;5034885;28;20033;-73
2023/01/23 01:08:51;;;;;;;33.45;17.73;;;3.90;99.90;;;;;;5035506;28;20025;-73
2023/01/23 01:11:17;;;;;;;31.45;18.27;;;3.80;99.90;;;;;;5035652;28;20025;-73
2023/01/23 01:13:44;;;;;;;34.05;18.13;;;3.90;99.90;;;;;;5035387;28;20061;-72
2023/01/23 01:16:10;;;;;;;31.88;17.40;;;4.00;99.90;;;;;;5035891;28;20123;-73
2023/01/23 01:18:36;;;;;;;33.22;19.05;;;4.00;99.90;;;;;;5034310;28;20025;-73
2023/01/23 01:21:09;;;;;;;36.67;19.02;;;4.10;99.90;;;;;;5034288;28;20199;-73
2023/01/23 01:23:35;;;;;;;39.72;19.00;;;3.90;99.90;;;;;;5034293;28;20371;-73
2023/01/23 01:26:01;;;;;;;31.63;19.33;;;3.80;99.90;;;;;;5035272;28;20045;-73
2023/01/23 01:28:32;;;;;;;36.83;19.20;;;4.00;99.90;;;;;;5035285;28;20030;-73
2023/01/23 01:31:02;;;;;;;35.15;19.27;;;3.90;99.90;;;;;;5035486;28;20073;-73
2023/01/23 01:33:28;;;;;;;37.58;19.27;;;3.90;99.90;;;;;;5034609;28;20217;-73
2023/01/23 01:35:55;;;;;;;38.03;19.77;;;3.90;99.90;;;;;;5017436;28;20545;-74
2023/01/23 01:38:21;;;;;;;38.13;19.80;;;4.00;99.90;;;;;;5033964;28;20021;-73
2023/01/23 01:40:47;;;;;;;38.13;19.50;;;4.00;99.90;;;;;;5034928;28;20464;-72
2023/01/23 01:43:23;;;;;;;35.78;19.92;;;4.00;99.90;;;;;;5032981;28;20041;-73
2023/01/23 01:46:06;;;;;;;36.85;18.70;;;4.00;99.90;;;;;;5034878;28;20024;-73
2023/01/23 01:48:37;;;;;;;43.63;21.70;;;4.10;99.90;;;;;;5035137;28;20033;-73
2023/01/23 01:51:09;;;;;;;35.00;19.52;;;4.20;99.90;;;;;;5034908;28;20080;-73
2023/01/23 01:53:36;;;;;;;43.03;21.52;;;4.10;99.90;;;;;;5034876;28;20537;-73
2023/01/23 01:56:02;;;;;;;39.38;20.45;;;4.00;99.90;;;;;;5034631;28;20160;-74
2023/01/23 01:58:29;;;;;;;63.60;23.70;;;4.10;99.90;;;;;;5034485;28;20475;-73
2023/01/23 02:00:55;;;;;;;50.25;23.02;;;4.20;99.90;;;;;;5034959;28;20033;-73
2023/01/23 02:03:23;;;;;;;38.15;21.08;;;4.20;99.90;;;;;;5034716;28;20043;-73
2023/01/23 02:05:49;;;;;;;37.75;21.05;;;4.20;99.90;;;;;;5034812;28;20029;-73
2023/01/23 02:08:34;;;;;;;42.78;21.15;;;4.20;99.90;;;;;;5034774;28;20091;-73
2023/01/23 02:11:02;;;;;;;45.10;20.58;;;4.10;99.90;;;;;;5034437;28;20029;-73
2023/01/23 02:13:32;;;;;;;37.63;21.08;;;4.10;99.90;;;;;;5033632;28;20033;-73
2023/01/23 02:16:00;;;;;;;37.40;21.27;;;4.10;99.90;;;;;;5035031;28;20049;-74
2023/01/23 02:18:28;;;;;;;37.33;22.02;;;4.10;99.90;;;;;;5034559;28;20095;-73
2023/01/23 02:20:57;;;;;;;39.70;21.08;;;3.90;99.90;;;;;;5035739;28;20105;-74
2023/01/23 02:23:44;;;;;;;38.85;21.42;;;3.80;99.90;;;;;;5033998;28;20503;-73
2023/01/23 02:26:17;;;;;;;38.28;20.33;;;3.90;99.90;;;;;;5034591;28;20079;-73
2023/01/23 02:28:46;;;;;;;35.78;20.67;;;4.00;99.90;;;;;;5033383;28;20037;-73
2023/01/23 02:31:13;;;;;;;36.80;20.90;;;3.90;99.90;;;;;;5033896;28;20474;-73
2023/01/23 02:33:39;;;;;;;44.85;22.02;;;4.00;99.90;;;;;;5032891;28;20030;-73
2023/01/23 02:36:07;;;;;;;40.65;22.23;;;4.10;99.90;;;;;;5034065;28;20033;-73
2023/01/23 02:38:39;;;;;;;41.08;21.60;;;4.10;99.90;;;;;;5016822;28;20053;-73
2023/01/23 02:41:08;;;;;;;35.45;21.17;;;4.10;99.90;;;;;;5033529;28;20030;-73
2023/01/23 02:43:36;;;;;;;36.33;20.75;;;4.10;99.90;;;;;;5032307;28;20030;-73
2023/01/23 02:46:07;;;;;;;33.25;19.77;;;4.10;99.90;;;;;;5033987;28;20068;-73
2023/01/23 02:48:33;;;;;;;34.65;19.00;;;4.10;99.90;;;;;;5033823;28;20025;-73
2023/01/23 02:50:58;;;;;;;36.45;20.25;;;4.20;99.90;;;;;;5031958;28;20192;-73
2023/01/23 02:53:24;;;;;;;34.95;20.77;;;4.20;99.90;;;;;;5015977;28;20194;-73
2023/01/23 02:55:50;;;;;;;39.25;21.02;;;4.30;99.90;;;;;;5032211;28;20040;-73
2023/01/23 03:01:00;;;;;;;34.00;21.20;;;4.20;99.90;;;;;;5033956;28;20036;-73
2023/01/23 03:03:26;;;;;;;36.92;20.75;;;4.20;99.90;;;;;;5015737;28;20038;-73
2023/01/23 03:05:54;;;;;;;39.00;20.75;;;4.20;99.90;;;;;;5016221;28;20036;-73
2023/01/23 03:08:20;;;;;;;35.97;20.90;;;4.10;99.90;;;;;;5033481;28;20033;-73
2023/01/23 03:10:45;;;;;;;35.55;20.60;;;4.10;99.90;;;;;;5031601;28;20436;-73
2023/01/23 03:13:11;;;;;;;35.95;22.02;;;4.10;99.90;;;;;;5015647;28;20203;-73
2023/01/23 03:15:38;;;;;;;37.85;21.10;;;4.20;99.90;;;;;;5031858;28;20115;-71
2023/01/23 03:18:04;;;;;;;36.55;19.58;;;4.20;99.90;;;;;;5015846;28;20342;-71
2023/01/23 03:20:37;;;;;;;34.95;21.27;;;4.30;99.90;;;;;;5031798;28;20041;-71
2023/01/23 03:23:03;;;;;;;41.83;21.60;;;4.30;99.90;;;;;;5031763;28;20029;-73
2023/01/23 03:25:29;;;;;;;36.53;20.13;;;4.30;99.90;;;;;;5031963;28;20128;-73
2023/01/23 03:27:54;;;;;;;42.47;21.42;;;4.30;99.90;;;;;;5032763;28;20035;-73
2023/01/23 03:30:20;;;;;;;34.63;20.80;;;4.30;99.90;;;;;;5015905;28;20110;-73
2023/01/23 03:32:47;;;;;;;37.75;20.30;;;4.30;99.90;;;;;;5015854;28;20079;-73
2023/01/23 03:35:19;;;;;;;37.70;20.25;;;4.40;99.90;;;;;;5032061;28;20136;-73
2023/01/23 03:37:48;;;;;;;37.22;20.38;;;4.40;99.90;;;;;;5033546;28;20446;-74
2023/01/23 03:43:11;;;;;;;33.70;20.45;;;4.20;99.90;;;;;;5022387;28;20037;-73
2023/01/23 03:45:36;;;;;;;33.38;20.35;;;4.20;99.90;;;;;;5031657;28;20041;-73
2023/01/23 03:48:02;;;;;;;40.42;20.77;;;4.20;99.90;;;;;;5031554;28;20079;-73
2023/01/23 03:50:28;;;;;;;39.25;21.45;;;4.20;99.90;;;;;;5031677;28;20390;-73
2023/01/23 03:52:53;;;;;;;35.78;20.30;;;4.10;99.90;;;;;;5032467;28;20104;-73
2023/01/23 03:55:19;;;;;;;39.28;21.45;;;4.20;99.90;;;;;;5031494;28;20041;-73
2023/01/23 03:57:45;;;;;;;39.95;20.70;;;4.20;99.90;;;;;;5015037;28;20041;-73
2023/01/23 04:00:12;;;;;;;38.55;21.25;;;4.20;99.90;;;;;;5033204;28;20029;-72
2023/01/23 04:02:38;;;;;;;40.47;21.25;;;4.00;99.90;;;;;;5032950;28;20029;-73
2023/01/23 04:05:04;;;;;;;35.05;20.20;;;4.10;99.90;;;;;;5033861;28;20034;-73
2023/01/23 04:07:29;;;;;;;40.53;20.60;;;4.10;99.90;;;;;;5035568;28;20034;-73
2023/01/23 04:09:55;;;;;;;33.28;19.02;;;4.20;99.90;;;;;;5037434;28;20112;-72
2023/01/23 04:12:21;;;;;;;43.80;21.75;;;4.20;99.90;;;;;;5035826;28;20029;-73
2023/01/23 04:14:46;;;;;;;41.70;20.88;;;4.30;99.90;;;;;;5036986;28;20098;-73
2023/01/23 04:17:12;;;;;;;34.15;21.00;;;4.20;99.90;;;;;;5036694;28;20086;-73
2023/01/23 04:19:37;;;;;;;32.92;20.25;;;4.30;99.90;;;;;;5019326;28;20026;-73
2023/01/23 04:22:03;;;;;;;38.83;21.50;;;4.20;99.90;;;;;;5036660;28;20030;-73
2023/01/23 04:24:29;;;;;;;33.47;19.77;;;4.20;99.90;;;;;;5036713;28;20052;-72
2023/01/23 04:26:55;;;;;;;40.42;21.48;;;4.20;99.90;;;;;;5035083;28;20331;-72
2023/01/23 04:29:20;;;;;;;36.85;21.20;;;4.30;99.90;;;;;;5035235;28;20041;-73
2023/01/23 04:31:46;;;;;;;39.45;21.05;;;4.30;99.90;;;;;;5036840;28;20030;-73
2023/01/23 04:34:12;;;;;;;38.65;21.52;;;4.30;99.90;;;;;;5036447;28;20037;-73
2023/01/23 04:36:37;;;;;;;35.10;21.13;;;4.10;99.90;;;;;;5036641;28;20121;-73
2023/01/23 04:39:03;;;;;;;33.05;20.38;;;4.10;99.90;;;;;;5034718;28;20124;-72
2023/01/23 04:41:30;;;;;;;39.20;20.92;;;4.00;99.90;;;;;;5035189;28;20036;-73
2023/01/23 04:44:18;;;;;;;37.40;20.98;;;4.00;99.90;;;;;;5034873;28;20041;-73
2023/01/23 04:46:42;;;;;;;40.28;23.10;;;4.10;99.90;;;;;;5034767;28;20046;-73
2023/01/23 04:49:07;;;;;;;37.88;21.80;;;4.10;99.90;;;;;;5018460;28;20037;-73
2023/01/23 04:51:33;;;;;;;37.47;20.63;;;3.90;99.90;;;;;;5002761;28;20033;-73
2023/01/23 04:53:58;;;;;;;34.10;21.17;;;4.00;99.90;;;;;;5035862;28;20049;-73
2023/01/23 04:56:24;;;;;;;36.80;20.27;;;4.10;99.90;;;;;;5036407;28;20037;-73
2023/01/23 04:58:52;;;;;;;36.40;20.58;;;4.10;99.90;;;;;;5034732;28;20037;-73
2023/01/23 05:01:21;;;;;;;33.22;19.95;;;4.10;99.90;;;;;;5034578;28;20079;-73
2023/01/23 05:03:51;;;;;;;34.75;20.48;;;4.00;99.90;;;;;;5034856;28;20148;-73
2023/01/23 05:06:17;;;;;;;34.83;20.48;;;4.10;99.90;;;;;;5036124;28;20078;-73
2023/01/23 05:08:42;;;;;;;32.30;19.45;;;4.10;99.90;;;;;;5035592;28;20108;-73
2023/01/23 05:11:08;;;;;;;34.45;20.17;;;4.10;99.90;;;;;;5035716;28;20029;-73
2023/01/23 05:13:34;;;;;;;35.63;20.85;;;4.20;99.90;;;;;;5035030;28;20095;-73
2023/01/23 05:16:00;;;;;;;38.13;21.45;;;4.10;99.90;;;;;;5034381;28;20029;-73
2023/01/23 05:18:25;;;;;;;37.38;21.50;;;4.10;99.90;;;;;;5033582;28;20064;-73
2023/01/23 05:20:51;;;;;;;35.78;22.05;;;4.00;99.90;;;;;;5035790;28;20049;-73
2023/01/23 05:23:16;;;;;;;37.60;22.33;;;4.00;99.90;;;;;;5034381;28;20022;-72
2023/01/23 05:25:43;;;;;;;34.45;20.67;;;3.90;99.90;;;;;;5035693;28;20035;-72
2023/01/23 05:28:09;;;;;;;38.88;19.95;;;4.00;99.90;;;;;;5034273;28;20040;-73
2023/01/23 05:30:34;;;;;;;33.42;21.05;;;4.10;99.90;;;;;;5034387;28;20034;-72
2023/01/23 05:33:00;;;;;;;38.42;20.38;;;4.20;99.90;;;;;;5034207;28;20034;-73
2023/01/23 05:35:26;;;;;;;36.03;21.10;;;4.20;99.90;;;;;;5035085;28;20095;-73
2023/01/23 05:37:52;;;;;;;35.10;21.42;;;4.10;99.90;;;;;;5035093;28;20025;-73
2023/01/23 05:40:18;;;;;;;34.42;21.02;;;4.30;99.90;;;;;;5034970;28;20459;-73
2023/01/23 05:42:45;;;;;;;38.53;21.65;;;4.30;99.90;;;;;;5034104;28;20577;-73
2023/01/23 05:45:11;;;;;;;42.40;21.58;;;4.30;99.90;;;;;;5017473;28;20589;-73
2023/01/23 05:47:37;;;;;;;34.75;20.92;;;4.30;99.90;;;;;;5036019;28;20080;-73
2023/01/23 05:50:04;;;;;;;38.78;21.63;;;4.30;99.90;;;;;;5035540;28;20037;-73
2023/01/23 05:52:29;;;;;;;32.67;21.15;;;4.40;99.90;;;;;;5035052;28;20551;-73
2023/01/23 05:54:55;;;;;;;30.10;19.83;;;4.40;99.90;;;;;;5017941;28;20033;-73
2023/01/23 05:57:21;;;;;;;36.47;20.55;;;4.50;99.90;;;;;;5035212;28;20136;-73
2023/01/23 05:59:47;;;;;;;32.28;19.83;;;4.50;99.90;;;;;;5035114;28;20319;-73
2023/01/23 06:02:12;;;;;;;36.47;20.58;;;4.40;99.90;;;;;;5017665;28;20071;-73
2023/01/23 06:04:38;;;;;;;34.55;19.55;;;4.30;99.90;;;;;;5034613;28;20042;-73
2023/01/23 06:07:04;;;;;;;40.35;21.20;;;4.30;99.90;;;;;;5033743;28;20428;-73
2023/01/23 06:09:29;;;;;;;34.20;21.42;;;4.30;99.90;;;;;;5033523;28;20082;-73
2023/01/23 06:11:55;;;;;;;34.58;20.48;;;4.30;99.90;;;;;;5032849;28;20033;-73
2023/01/23 06:14:21;;;;;;;33.83;20.65;;;4.30;99.90;;;;;;5034966;28;20038;-73
2023/01/23 06:16:46;;;;;;;35.80;20.55;;;4.30;99.90;;;;;;5016708;28;20041;-71
2023/01/23 06:19:12;;;;;;;37.90;21.42;;;4.20;99.90;;;;;;5034598;28;20034;-72
2023/01/23 06:21:38;;;;;;;35.80;21.35;;;4.20;99.90;;;;;;5032908;28;20037;-71
2023/01/23 06:24:03;;;;;;;37.47;19.77;;;4.20;99.90;;;;;;5016472;28;20095;-72
2023/01/23 06:26:29;;;;;;;41.40;21.42;;;4.30;99.90;;;;;;5016941;28;20049;-73
2023/01/23 06:28:55;;;;;;;26.35;16.50;;;4.30;99.90;;;;;;5016203;28;20485;-71
2023/01/23 06:31:20;;;;;;;27.88;18.42;;;4.50;99.90;;;;;;4999947;28;20443;-72
2023/01/23 06:33:50;;;;;;;28.85;17.80;;;4.60;99.90;;;;;;5033498;28;20355;-73
2023/01/23 06:36:16;;;;;;;34.40;18.77;;;4.70;99.90;;;;;;5016665;28;20041;-73
2023/01/23 06:38:42;;;;;;;32.75;19.17;;;4.90;99.90;;;;;;5032857;28;20116;-72
2023/01/23 06:41:08;;;;;;;29.90;17.75;;;4.90;99.90;;;;;;5034105;28;20084;-73
2023/01/23 06:43:34;;;;;;;23.98;16.05;;;4.90;99.90;;;;;;5034032;28;20087;-72
2023/01/23 06:46:00;;;;;;;29.52;17.63;;;5.10;99.90;;;;;;5032451;28;20401;-74
2023/01/23 06:48:26;;;;;;;32.20;18.38;;;5.20;99.90;;;;;;5032845;28;20367;-73
2023/01/23 06:50:51;;;;;;;22.60;15.50;;;5.00;99.90;;;;;;5016401;28;20030;-73
2023/01/23 06:53:18;;;;;;;31.85;19.38;;;5.10;99.90;;;;;;5034208;28;20057;-71
2023/01/23 06:55:44;;;;;;;31.52;17.83;;;5.20;99.90;;;;;;5032391;28;20040;-72
2023/01/23 06:58:10;;;;;;;33.75;17.92;;;5.20;99.90;;;;;;5032737;28;20033;-73
2023/01/23 07:00:36;;;;;;;24.45;14.40;;;5.30;99.90;;;;;;5033995;28;20116;-73
2023/01/23 07:03:02;;;;;;;30.35;18.45;;;5.40;99.90;;;;;;5032518;28;20048;-72
2023/01/23 07:05:29;;;;;;;30.13;17.77;;;5.30;99.90;;;;;;5032672;28;20101;-73
2023/01/23 07:07:55;;;;;;;30.17;17.73;;;5.10;99.90;;;;;;5032463;28;20029;-74
2023/01/23 07:10:22;;;;;;;32.83;19.45;;;5.10;99.90;;;;;;5032304;28;20025;-74
2023/01/23 07:12:48;;;;;;;31.40;19.35;;;5.00;99.90;;;;;;5033810;28;20032;-72
2023/01/23 07:15:14;;;;;;;26.35;18.38;;;4.90;99.90;;;;;;5033463;28;20030;-73
2023/01/23 07:17:39;;;;;;;39.72;21.30;;;4.80;99.90;;;;;;5033543;28;20045;-72
2023/01/23 07:20:06;;;;;;;29.20;20.20;;;4.70;99.90;;;;;;5033620;28;20033;-73
2023/01/23 07:22:31;;;;;;;36.10;20.40;;;4.60;99.90;;;;;;5031789;28;20037;-73
2023/01/23 07:24:57;;;;;;;30.80;20.13;;;4.60;99.90;;;;;;5032323;28;20427;-73
2023/01/23 07:27:22;;;;;;;29.98;17.83;;;4.60;99.90;;;;;;5032273;28;20053;-73
2023/01/23 07:29:48;;;;;;;25.63;16.52;;;4.50;99.90;;;;;;5015798;28;20104;-73
2023/01/23 07:32:14;;;;;;;36.10;20.27;;;4.60;99.90;;;;;;5032557;28;20037;-73
2023/01/23 07:34:39;;;;;;;32.33;18.63;;;4.70;99.90;;;;;;5033058;28;20064;-73
2023/01/23 07:37:05;;;;;;;32.30;18.58;;;4.60;99.90;;;;;;5032524;28;20076;-73
2023/01/23 07:39:31;;;;;;;27.83;19.20;;;4.60;99.90;;;;;;5034186;28;20120;-72
2023/01/23 07:41:56;;;;;;;32.70;19.60;;;4.60;99.90;;;;;;5032179;28;20415;-72
2023/01/23 07:44:22;;;;;;;31.17;19.05;;;4.60;99.90;;;;;;5031767;28;20176;-73
2023/01/23 07:46:48;;;;;;;28.85;19.35;;;4.60;99.90;;;;;;5015008;28;20161;-72
2023/01/23 07:49:14;;;;;;;34.75;19.50;;;4.60;99.90;;;;;;5033034;28;20060;-71
2023/01/23 07:51:40;;;;;;;33.20;18.58;;;4.70;99.90;;;;;;5032918;28;20033;-72
2023/01/23 07:54:06;;;;;;;30.75;18.95;;;4.60;99.90;;;;;;5031573;28;20054;-72
2023/01/23 07:56:32;;;;;;;26.77;18.02;;;4.60;99.90;;;;;;5031658;28;20075;-72
2023/01/23 07:58:59;;;;;;;31.65;20.25;;;4.60;99.90;;;;;;5015556;28;20039;-72
2023/01/23 08:01:24;;;;;;;29.25;19.00;;;4.60;99.90;;;;;;5032763;28;20116;-74
2023/01/23 08:03:51;;;;;;;33.90;19.65;;;4.70;99.90;;;;;;5014971;28;20128;-73
2023/01/23 08:06:17;;;;;;;28.58;17.83;;;4.70;99.90;;;;;;5032973;28;20462;-73
2023/01/23 08:08:43;;;;;;;27.40;17.17;;;4.70;99.90;;;;;;5031102;28;20121;-73
2023/01/23 08:11:11;;;;;;;25.95;17.08;;;4.90;99.90;;;;;;4998493;28;20128;-73
2023/01/23 08:13:37;;;;;;;30.00;18.35;;;4.90;99.90;;;;;;5031157;28;20144;-73
2023/01/23 08:16:04;;;;;;;30.85;18.50;;;4.90;99.90;;;;;;5032233;28;20099;-74
2023/01/23 08:18:30;;;;;;;30.65;18.30;;;4.90;99.90;;;;;;5031304;28;20042;-72
2023/01/23 08:20:57;;;;;;;33.70;18.85;;;4.80;99.90;;;;;;5031134;28;20091;-74
2023/01/23 08:23:28;;;;;;;21.30;15.30;;;4.80;99.90;;;;;;5032611;28;20075;-73
2023/01/23 08:25:55;;;;;;;32.75;18.23;;;4.80;99.90;;;;;;5031155;28;20025;-77
2023/01/23 08:28:21;;;;;;;35.53;17.45;;;4.70;99.90;;;;;;5031856;28;20133;-77
2023/01/23 08:30:47;;;;;;;28.50;18.10;;;4.70;99.90;;;;;;5031264;28;20069;-77
2023/01/23 08:33:13;;;;;;;30.60;18.90;;;4.80;99.90;;;;;;5032665;28;20080;-77
2023/01/23 08:35:38;;;;;;;31.05;19.25;;;4.70;99.90;;;;;;5015005;28;20029;-77
2023/01/23 08:38:06;;;;;;;27.75;17.83;;;4.70;99.90;;;;;;5031558;28;20411;-78
2023/01/23 08:40:32;;;;;;;28.40;16.98;;;4.70;99.90;;;;;;5031077;28;20112;-79
2023/01/23 08:42:58;;;;;;;29.73;18.85;;;4.70;99.90;;;;;;5030826;28;20056;-75
2023/01/23 08:45:24;;;;;;;29.13;18.60;;;4.70;99.90;;;;;;5014494;28;20145;-73
2023/01/23 08:47:49;;;;;;;31.15;19.67;;;4.70;99.90;;;;;;5014211;28;20446;-73
2023/01/23 08:50:16;;;;;;;25.38;18.30;;;4.80;99.90;;;;;;5032089;28;20100;-73
2023/01/23 08:52:42;;;;;;;26.10;15.27;;;4.90;99.90;;;;;;5032478;28;20057;-74
2023/01/23 08:55:09;;;;;;;25.27;17.88;;;4.90;99.90;;;;;;5034897;28;20045;-74
2023/01/23 08:57:35;;;;;;;32.25;19.00;;;5.00;99.90;;;;;;5034829;28;20096;-73
2023/01/23 09:00:02;;;;;;;28.52;18.55;;;5.00;99.90;;;;;;5035333;28;20030;-73
2023/01/23 09:02:28;;;;;;;30.77;17.95;;;5.00;99.90;;;;;;5035135;28;20116;-74
2023/01/23 09:04:53;;;;;;;25.27;17.17;;;4.90;99.90;;;;;;5018301;28;20125;-73
2023/01/23 09:07:19;;;;;;;30.90;17.73;;;5.00;99.90;;;;;;5002010;28;20049;-74
2023/01/23 09:09:45;;;;;;;22.95;16.05;;;5.00;99.90;;;;;;5035594;28;20036;-74
2023/01/23 09:12:10;;;;;;;20.52;14.30;;;5.00;99.90;;;;;;5018396;28;20041;-73
2023/01/23 09:14:36;;;;;;;26.67;17.70;;;5.10;99.90;;;;;;5035552;28;20026;-74
2023/01/23 09:17:02;;;;;;;27.70;18.17;;;5.20;99.90;;;;;;5017611;28;20494;-73
2023/01/23 09:19:30;;;;;;;23.85;15.90;;;5.20;99.90;;;;;;5034511;28;20029;-74
2023/01/23 09:21:56;;;;;;;29.38;18.23;;;5.00;99.90;;;;;;5036953;28;20030;-75
2023/01/23 09:24:22;;;;;;;26.33;17.38;;;5.00;99.90;;;;;;5037023;28;20041;-73
2023/01/23 09:26:48;;;;;;;21.80;15.68;;;5.00;99.90;;;;;;5036903;28;20390;-76
2023/01/23 09:29:14;;;;;;;23.50;16.33;;;4.90;99.90;;;;;;5034134;28;20438;-76
2023/01/23 09:31:40;;;;;;;28.98;18.90;;;4.90;99.90;;;;;;5035341;28;20033;-75
2023/01/23 09:34:06;;;;;;;29.45;18.40;;;4.90;99.90;;;;;;5033916;28;20039;-75
2023/01/23 09:36:32;;;;;;;27.50;18.45;;;4.90;99.90;;;;;;5035580;28;20029;-75
2023/01/23 09:38:58;;;;;;;28.02;17.98;;;4.80;99.90;;;;;;5017876;28;20034;-73
2023/01/23 09:41:27;;;;;;;31.58;19.17;;;4.90;99.90;;;;;;5033838;28;20034;-74
2023/01/23 09:43:52;;;;;;;29.52;18.23;;;5.10;99.90;;;;;;5034873;28;20105;-75
2023/01/23 09:46:28;;;;;;;23.27;14.57;;;5.10;99.90;;;;;;5035350;28;20492;-74
2023/01/23 09:49:01;;;;;;;31.65;18.42;;;5.20;99.90;;;;;;5033594;28;20084;-72
2023/01/23 09:51:30;;;;;;;29.45;16.92;;;5.30;99.90;;;;;;5033566;28;20025;-71
2023/01/23 09:54:09;;;;;;;27.98;16.85;;;5.30;99.90;;;;;;5032974;28;20080;-73
2023/01/23 09:56:42;;;;;;;26.85;17.65;;;5.40;99.90;;;;;;5033408;28;20509;-74
2023/01/23 09:59:16;;;;;;;28.10;17.58;;;5.50;99.90;;;;;;5035301;28;20033;-74
2023/01/23 10:01:42;;;;;;;25.77;17.02;;;5.30;99.90;;;;;;5033700;28;20358;-71
2023/01/23 10:04:11;;;;;;;28.02;17.33;;;5.30;99.90;;;;;;5033697;28;20033;-70
2023/01/23 10:07:02;;;;;;;27.60;17.25;;;5.30;99.90;;;;;;5017101;28;20033;-74
2023/01/23 10:09:34;;;;;;;37.05;16.55;;;5.40;99.90;;;;;;5032631;28;20029;-74
2023/01/23 10:12:11;;;;;;;25.38;16.15;;;5.50;99.90;;;;;;5033667;28;20521;-70
2023/01/23 10:14:58;;;;;;;28.58;17.90;;;5.60;99.90;;;;;;5033195;28;20450;-71
2023/01/23 10:17:32;;;;;;;23.98;16.15;;;5.60;99.90;;;;;;5032463;28;20466;-72
2023/01/23 10:20:21;;;;;;;25.42;16.73;;;5.50;99.90;;;;;;5033711;28;20053;-74
2023/01/23 10:23:09;;;;;;;26.33;16.27;;;5.60;99.90;;;;;;5033434;28;20044;-75
2023/01/23 10:25:37;;;;;;;27.52;16.80;;;5.70;99.90;;;;;;5032646;28;20029;-73
2023/01/23 10:28:37;;;;;;;30.13;17.00;;;5.90;99.90;;;;;;5033793;28;20040;-74
2023/01/23 10:31:29;;;;;;;26.63;16.17;;;5.90;99.90;;;;;;5019523;28;20057;-74
2023/01/23 10:34:05;;;;;;;26.50;15.43;;;6.00;99.90;;;;;;5027735;28;20063;-74
2023/01/23 10:36:44;;;;;;;25.50;15.95;;;6.00;99.90;;;;;;5032444;28;20473;-73
2023/01/23 10:39:15;;;;;;;26.70;15.45;;;6.10;99.90;;;;;;5032737;28;20174;-74
2023/01/23 10:41:40;;;;;;;24.05;15.32;;;6.10;99.90;;;;;;5032500;28;20032;-73
2023/01/23 10:44:18;;;;;;;25.10;16.38;;;6.10;99.90;;;;;;5015661;28;20038;-71
2023/01/23 10:46:56;;;;;;;27.88;14.82;;;6.20;99.90;;;;;;5034056;28;20120;-74
2023/01/23 10:49:33;;;;;;;24.73;15.52;;;6.30;99.90;;;;;;5032478;28;20057;-73
2023/01/23 10:52:00;;;;;;;21.08;15.05;;;6.40;99.90;;;;;;5033585;28;20474;-71
2023/01/23 10:54:27;;;;;;;28.73;16.77;;;6.40;99.90;;;;;;5031901;28;20088;-73
2023/01/23 10:56:57;;;;;;;25.13;17.20;;;6.30;99.90;;;;;;5033323;28;20079;-73
2023/01/23 10:59:35;;;;;;;25.10;16.02;;;6.30;99.90;;;;;;5032109;28;20528;-75
2023/01/23 11:02:13;;;;;;;26.67;16.25;;;6.10;99.90;;;;;;5032609;28;20128;-74
2023/01/23 11:04:41;;;;;;;28.77;18.17;;;5.90;99.90;;;;;;5036830;28;20121;-76
2023/01/23 11:07:14;;;;;;;28.20;17.17;;;5.90;99.90;;;;;;5047991;28;20038;-77
2023/01/23 11:09:49;;;;;;;29.10;18.13;;;6.00;99.90;;;;;;5048398;28;20021;-77
2023/01/23 11:12:19;;;;;;;29.33;17.85;;;6.10;99.90;;;;;;5032567;28;20057;-77
2023/01/23 11:14:45;;;;;;;29.23;20.15;;;6.20;99.90;;;;;;5033044;28;20040;-76
2023/01/23 11:17:22;;;;;;;26.00;17.95;;;6.30;99.90;;;;;;5015226;28;20034;-75
2023/01/23 11:19:53;;;;;;;26.95;18.73;;;6.30;99.90;;;;;;5031626;28;20466;-77
2023/01/23 11:22:29;;;;;;;27.77;18.92;;;6.40;99.90;;;;;;5031751;28;20030;-77
2023/01/23 11:24:55;;;;;;;28.95;18.48;;;6.30;99.90;;;;;;5033082;28;20091;-74
2023/01/23 11:27:28;;;;;;;25.38;17.98;;;6.30;99.90;;;;;;5032804;28;20029;-73
2023/01/23 11:30:09;;;;;;;27.20;18.73;;;6.40;99.90;;;;;;5032778;28;20025;-73
2023/01/23 11:32:58;;;;;;;24.27;17.98;;;6.30;99.90;;;;;;5032805;28;20034;-76
2023/01/23 11:35:42;;;;;;;26.25;17.92;;;6.40;99.90;;;;;;5031637;28;20030;-73
2023/01/23 11:38:15;;;;;;;26.83;17.88;;;6.40;99.90;;;;;;5032953;28;20033;-73
2023/01/23 11:40:41;;;;;;;;;;;6.40;99.90;;;;;;5031787;28;20060;-76
2023/01/23 11:43:16;;;;;;;26.25;17.13;;;6.40;99.90;;;;;;5031277;28;19905;-73
2023/01/23 11:45:47;;;;;;;20.85;14.93;;;6.20;99.90;;;;;;5031539;28;20038;-74
2023/01/23 11:48:21;;;;;;;25.92;16.98;;;6.30;99.90;;;;;;5032449;28;20025;-74
2023/01/23 11:51:03;;;;;;;27.27;16.48;;;6.30;99.90;;;;;;5032224;28;20029;-74
2023/01/23 11:54:21;;;;;;;21.10;15.52;;;6.30;99.90;;;;;;5030653;28;20041;-75
2023/01/23 11:56:52;;;;;;;24.00;16.15;;;6.20;99.90;;;;;;5010171;28;20066;-72
2023/01/23 11:59:28;;;;;;;25.60;17.33;;;6.20;99.90;;;;;;5030751;28;20487;-73
2023/01/23 12:02:12;;;;;;;22.38;15.55;;;6.20;99.90;;;;;;5031234;28;20068;-74
2023/01/23 12:04:52;;;;;;;25.98;16.85;;;6.20;99.90;;;;;;5032395;28;20037;-74
2023/01/23 12:07:20;;;;;;;24.95;16.75;;;6.40;99.90;;;;;;5031032;28;20036;-73
2023/01/23 12:10:04;;;;;;;25.92;16.83;;;6.40;99.90;;;;;;5032194;28;20037;-73
2023/01/23 12:12:54;;;;;;;26.42;16.35;;;6.50;99.90;;;;;;5031201;28;20049;-73
2023/01/23 12:15:40;;;;;;;23.58;15.93;;;6.50;99.90;;;;;;5031206;28;20033;-74
2023/01/23 12:18:25;;;;;;;21.42;14.80;;;6.40;99.90;;;;;;5032081;28;20411;-72
2023/01/23 12:21:15;;;;;;;25.83;17.23;;;6.10;99.90;;;;;;5031790;28;20116;-74
2023/01/23 12:24:02;;;;;;;24.60;16.20;;;6.10;99.90;;;;;;5031878;28;20033;-73
2023/01/23 12:26:30;;;;;;;20.45;15.38;;;6.10;99.90;;;;;;5032219;28;20033;-73
2023/01/23 12:29:45;;;;;;;23.80;17.30;;;6.20;99.90;;;;;;5034401;28;20405;-73
2023/01/23 12:32:25;;;;;;;22.48;16.73;;;6.30;99.90;;;;;;4998737;28;20108;-73
2023/01/23 12:35:24;;;;;;;23.73;17.13;;;6.30;99.90;;;;;;5035876;28;20185;-74
2023/01/23 12:38:10;;;;;;;23.40;17.27;;;6.30;99.90;;;;;;5035939;28;20037;-74
2023/01/23 12:41:14;;;;;;;22.30;16.48;;;6.30;99.90;;;;;;5036217;28;20084;-73
2023/01/23 12:43:49;;;;;;;25.30;16.73;;;6.30;99.90;;;;;;5012021;28;20430;-73
2023/01/23 12:46:33;;;;;;;29.25;18.10;;;6.40;99.90;;;;;;5035813;28;20061;-74
2023/01/23 12:49:40;;;;;;;22.88;17.05;;;6.40;99.90;;;;;;5040098;28;20022;-73
2023/01/23 12:52:14;;;;;;;24.23;16.38;;;6.20;99.90;;;;;;5032755;28;20041;-72
2023/01/23 12:54:45;;;;;;;24.73;17.20;;;6.10;99.90;;;;;;5044320;28;20127;-72